createdAt,value
2017-11-26T01:36:22.824Z,1013.80
2017-11-26T01:36:23.393Z,1013.79
2017-11-26T01:36:23.998Z,1013.79
2017-11-26T01:36:24.598Z,1013.83
2017-11-26T01:36:25.191Z,1013.81
2017-11-26T01:36:25.792Z,1013.82
2017-11-26T01:36:26.390Z,1013.86
2017-11-26T01:36:26.989Z,1013.85
2017-11-26T01:37:25.468Z,1013.83
2017-11-26T01:37:26.064Z,1013.85
2017-11-26T01:37:26.663Z,1013.85
2017-11-26T01:37:27.262Z,1013.87
2017-11-26T01:37:27.863Z,1013.84
2017-11-26T01:37:28.462Z,1013.86
2017-11-26T01:37:29.061Z,1013.86
2017-11-26T01:37:29.663Z,1013.85
2017-11-26T01:37:30.260Z,1013.80
2017-11-26T01:37:30.862Z,1013.83
2017-11-26T01:37:31.463Z,1013.83
2017-11-26T01:37:32.061Z,1013.84
2017-11-26T01:37:32.660Z,1013.83
2017-11-26T01:37:33.260Z,1013.86
2017-11-26T01:37:33.858Z,1013.85
2017-11-26T01:37:34.459Z,1013.86
2017-11-26T02:50:33.060Z,1013.62
2017-11-26T02:50:33.637Z,1013.62
2017-11-26T02:50:34.228Z,1013.61
2017-11-26T02:50:34.829Z,1013.60
2017-11-26T02:50:35.427Z,1013.60
2017-11-26T02:50:36.067Z,1013.60
2017-11-26T02:50:36.630Z,1013.62
2017-11-26T02:50:37.237Z,1013.62
2017-11-26T02:51:30.717Z,1013.67
2017-11-26T02:51:31.281Z,1013.65
2017-11-26T02:51:31.884Z,1013.68
2017-11-26T02:51:32.482Z,1013.64
2017-11-26T02:51:33.081Z,1013.66
2017-11-26T02:51:33.684Z,1013.66
2017-11-26T02:51:34.282Z,1013.62
2017-11-26T02:51:34.881Z,1013.62
2017-11-26T02:52:28.973Z,1013.63
2017-11-26T02:52:29.549Z,1013.63
2017-11-26T02:52:30.147Z,1013.66
2017-11-26T02:52:30.746Z,1013.66
2017-11-26T02:52:31.346Z,1013.64
2017-11-26T02:52:31.945Z,1013.66
2017-11-26T02:52:32.544Z,1013.68
2017-11-26T02:53:27.040Z,1013.66
2017-11-26T02:53:27.609Z,1013.64
2017-11-26T02:53:28.211Z,1013.64
2017-11-26T02:53:28.809Z,1013.66
2017-11-26T02:53:29.413Z,1013.64
2017-11-26T02:53:30.010Z,1013.64
2017-11-26T02:53:30.613Z,1013.66
2017-11-26T02:53:31.208Z,1013.64
2017-11-26T02:54:25.710Z,1013.69
2017-11-26T02:54:26.286Z,1013.63
2017-11-26T02:54:26.885Z,1013.67
2017-11-26T02:54:27.484Z,1013.63
2017-11-26T02:54:28.091Z,1013.64
2017-11-26T02:54:28.685Z,1013.62
2017-11-26T02:54:29.285Z,1013.66
2017-11-26T02:54:29.886Z,1013.66
2017-11-26T02:55:23.370Z,1013.64
2017-11-26T02:55:23.938Z,1013.64
2017-11-26T02:55:24.537Z,1013.63
2017-11-26T02:55:25.137Z,1013.62
2017-11-26T02:55:25.737Z,1013.66
2017-11-26T02:55:26.336Z,1013.67
2017-11-26T02:55:26.937Z,1013.63
2017-11-26T02:55:27.535Z,1013.60
2017-11-26T02:56:22.047Z,1013.66
2017-11-26T02:56:22.616Z,1013.64
2017-11-26T02:56:23.223Z,1013.64
2017-11-26T02:56:23.823Z,1013.66
2017-11-26T02:56:24.414Z,1013.64
2017-11-26T02:56:25.014Z,1013.61
2017-11-26T02:56:25.612Z,1013.64
2017-11-26T02:56:26.212Z,1013.62
2017-11-26T02:57:19.693Z,1013.64
2017-11-26T02:57:20.266Z,1013.63
2017-11-26T02:57:20.884Z,1013.61
2017-11-26T02:57:21.466Z,1013.60
2017-11-26T02:57:22.071Z,1013.61
2017-11-26T02:57:22.664Z,1013.59
2017-11-26T02:57:23.264Z,1013.58
2017-11-26T02:57:23.866Z,1013.60
2017-11-26T02:58:18.346Z,1013.58
2017-11-26T02:58:18.942Z,1013.58
2017-11-26T02:58:19.543Z,1013.60
2017-11-26T02:58:20.140Z,1013.62
2017-11-26T02:58:20.740Z,1013.63
2017-11-26T02:58:21.340Z,1013.63
2017-11-26T02:58:21.941Z,1013.63
2017-11-26T02:58:22.540Z,1013.63
2017-11-26T02:59:17.028Z,1013.61
2017-11-26T02:59:17.618Z,1013.65
2017-11-26T02:59:18.217Z,1013.62
2017-11-26T02:59:18.817Z,1013.56
2017-11-26T02:59:19.417Z,1013.62
2017-11-26T02:59:20.017Z,1013.60
2017-11-26T02:59:20.622Z,1013.61
2017-11-26T02:59:21.217Z,1013.62
2017-11-26T03:00:15.185Z,1013.61
2017-11-26T03:00:15.781Z,1013.63
2017-11-26T03:00:16.382Z,1013.63
2017-11-26T03:00:16.984Z,1013.67
2017-11-26T03:00:17.590Z,1013.67
2017-11-26T03:00:18.181Z,1013.64
2017-11-26T03:00:18.780Z,1013.66
2017-11-26T03:01:12.327Z,1013.66
2017-11-26T03:01:12.923Z,1013.67
2017-11-26T03:01:13.523Z,1013.66
2017-11-26T03:01:14.124Z,1013.68
2017-11-26T03:01:14.722Z,1013.66
2017-11-26T03:01:15.321Z,1013.67
2017-11-26T03:01:15.923Z,1013.67
2017-11-26T03:01:16.521Z,1013.65
2017-11-26T03:02:10.110Z,1013.64
2017-11-26T03:02:10.679Z,1013.64
2017-11-26T03:02:11.275Z,1013.60
2017-11-26T03:02:11.876Z,1013.62
2017-11-26T03:02:12.473Z,1013.64
2017-11-26T03:02:13.076Z,1013.65
2017-11-26T03:02:13.672Z,1013.63
2017-11-26T03:02:14.273Z,1013.64
2017-11-26T03:03:07.730Z,1013.65
2017-11-26T03:03:08.326Z,1013.64
2017-11-26T03:03:08.938Z,1013.65
2017-11-26T03:03:09.525Z,1013.66
2017-11-26T03:03:10.125Z,1013.63
2017-11-26T03:03:10.734Z,1013.62
2017-11-26T03:03:11.326Z,1013.65
2017-11-26T03:03:11.926Z,1013.67
2017-11-26T03:04:05.896Z,1013.70
2017-11-26T03:04:06.494Z,1013.69
2017-11-26T03:04:07.088Z,1013.69
2017-11-26T03:04:07.692Z,1013.69
2017-11-26T03:04:08.288Z,1013.69
2017-11-26T03:04:08.890Z,1013.69
2017-11-26T03:04:09.490Z,1013.69
2017-11-26T03:05:03.996Z,1013.70
2017-11-26T03:05:04.552Z,1013.73
2017-11-26T03:05:05.152Z,1013.70
2017-11-26T03:05:05.752Z,1013.70
2017-11-26T03:05:06.351Z,1013.71
2017-11-26T03:05:06.951Z,1013.71
2017-11-26T03:05:07.551Z,1013.72
2017-11-26T03:05:08.150Z,1013.67
2017-11-26T03:06:01.611Z,1013.80
2017-11-26T03:06:02.204Z,1013.74
2017-11-26T03:06:02.803Z,1013.73
2017-11-26T03:06:03.403Z,1013.77
2017-11-26T03:06:04.003Z,1013.79
2017-11-26T03:06:04.604Z,1013.75
2017-11-26T03:06:05.204Z,1013.74
2017-11-26T03:06:05.805Z,1013.76
2017-11-26T03:07:01.820Z,1013.75
2017-11-26T03:07:02.427Z,1013.76
2017-11-26T03:07:03.015Z,1013.79
2017-11-26T03:07:03.614Z,1013.79
2017-11-26T03:07:04.216Z,1013.75
2017-11-26T03:07:04.815Z,1013.76
2017-11-26T03:07:59.771Z,1013.84
2017-11-26T03:08:00.339Z,1013.79
2017-11-26T03:08:00.939Z,1013.81
2017-11-26T03:08:01.540Z,1013.82
2017-11-26T03:08:02.140Z,1013.80
2017-11-26T03:08:02.740Z,1013.84
2017-11-26T03:08:03.339Z,1013.84
2017-11-26T03:08:03.946Z,1013.83
2017-11-26T03:08:58.475Z,1013.92
2017-11-26T03:08:59.053Z,1013.90
2017-11-26T03:08:59.649Z,1013.91
2017-11-26T03:09:00.260Z,1013.88
2017-11-26T03:09:01.478Z,1013.91
2017-11-26T03:09:01.970Z,1013.91
2017-11-26T03:09:02.569Z,1013.87
2017-11-26T03:09:56.133Z,1013.94
2017-11-26T03:09:56.702Z,1013.92
2017-11-26T03:09:57.301Z,1013.90
2017-11-26T03:09:57.902Z,1013.93
2017-11-26T03:09:58.502Z,1013.93
2017-11-26T03:09:59.102Z,1013.95
2017-11-26T03:09:59.703Z,1013.95
2017-11-26T03:10:00.363Z,1013.96
2017-11-26T03:10:53.779Z,1014.02
2017-11-26T03:10:54.354Z,1013.98
2017-11-26T03:10:54.953Z,1014.01
2017-11-26T03:10:55.553Z,1013.99
2017-11-26T03:10:56.199Z,1013.97
2017-11-26T03:10:56.753Z,1013.98
2017-11-26T03:10:57.353Z,1013.96
2017-11-26T03:10:57.953Z,1013.96
2017-11-26T03:11:51.435Z,1013.99
2017-11-26T03:11:52.006Z,1014.02
2017-11-26T03:11:52.605Z,1013.95
2017-11-26T03:11:53.206Z,1013.98
2017-11-26T03:11:53.803Z,1014.00
2017-11-26T03:11:54.408Z,1014.00
2017-11-26T03:11:55.005Z,1014.03
2017-11-26T03:11:55.605Z,1014.01
2017-11-26T03:12:50.084Z,1013.99
2017-11-26T03:12:50.682Z,1013.99
2017-11-26T03:12:51.280Z,1014.00
2017-11-26T03:12:51.884Z,1013.98
2017-11-26T03:12:52.481Z,1014.00
2017-11-26T03:12:53.079Z,1013.99
2017-11-26T03:12:53.678Z,1014.02
2017-11-26T03:12:54.278Z,1013.95
2017-11-26T03:13:47.870Z,1014.02
2017-11-26T03:13:48.436Z,1014.04
2017-11-26T03:13:49.034Z,1014.02
2017-11-26T03:13:49.634Z,1014.01
2017-11-26T03:13:50.233Z,1014.02
2017-11-26T03:13:50.837Z,1014.03
2017-11-26T03:13:51.432Z,1014.07
2017-11-26T03:13:52.034Z,1014.06
2017-11-26T03:14:46.522Z,1014.06
2017-11-26T03:14:47.123Z,1014.05
2017-11-26T03:14:47.709Z,1014.03
2017-11-26T03:14:48.308Z,1014.03
2017-11-26T03:14:48.907Z,1014.05
2017-11-26T03:14:49.507Z,1014.02
2017-11-26T03:14:50.107Z,1014.00
2017-11-26T03:14:50.707Z,1014.06
2017-11-26T03:15:45.194Z,1014.07
2017-11-26T03:15:45.789Z,1014.09
2017-11-26T03:15:46.386Z,1014.04
2017-11-26T03:15:46.993Z,1014.06
2017-11-26T03:15:47.586Z,1014.07
2017-11-26T03:15:48.187Z,1014.07
2017-11-26T03:15:48.789Z,1014.07
2017-11-26T03:15:49.385Z,1014.07
2017-11-26T03:16:42.841Z,1014.05
2017-11-26T03:16:43.438Z,1014.02
2017-11-26T03:16:44.037Z,1014.03
2017-11-26T03:16:44.637Z,1014.03
2017-11-26T03:16:45.236Z,1014.05
2017-11-26T03:16:45.837Z,1014.00
2017-11-26T03:16:46.443Z,1014.06
2017-11-26T03:16:47.038Z,1014.06
2017-11-26T03:17:40.493Z,1014.09
2017-11-26T03:17:41.094Z,1014.05
2017-11-26T03:17:41.689Z,1014.08
2017-11-26T03:17:42.294Z,1014.06
2017-11-26T03:17:42.890Z,1014.05
2017-11-26T03:17:43.489Z,1014.03
2017-11-26T03:17:44.092Z,1014.06
2017-11-26T03:17:44.689Z,1014.07
2017-11-26T03:18:38.657Z,1014.02
2017-11-26T03:18:39.256Z,1014.05
2017-11-26T03:18:39.852Z,1014.04
2017-11-26T03:18:40.458Z,1014.04
2017-11-26T03:18:41.053Z,1014.05
2017-11-26T03:18:41.653Z,1014.07
2017-11-26T03:18:42.251Z,1014.01
2017-11-26T03:19:37.260Z,1014.12
2017-11-26T03:19:37.827Z,1014.04
2017-11-26T03:19:38.428Z,1014.10
2017-11-26T03:19:39.025Z,1014.06
2017-11-26T03:19:39.625Z,1014.10
2017-11-26T03:19:40.224Z,1014.08
2017-11-26T03:20:34.164Z,1014.09
2017-11-26T03:20:34.762Z,1014.05
2017-11-26T03:20:35.363Z,1014.04
2017-11-26T03:20:35.964Z,1014.08
2017-11-26T03:20:36.562Z,1014.04
2017-11-26T03:20:37.163Z,1014.03
2017-11-26T03:20:37.764Z,1014.06
2017-11-26T03:20:38.366Z,1014.05
2017-11-26T03:21:31.817Z,1014.08
2017-11-26T03:21:32.416Z,1014.10
2017-11-26T03:21:33.015Z,1014.09
2017-11-26T03:21:33.612Z,1014.11
2017-11-26T03:21:34.213Z,1014.06
2017-11-26T03:21:34.812Z,1014.09
2017-11-26T03:21:35.414Z,1014.08
2017-11-26T03:21:36.023Z,1014.07
2017-11-26T03:22:30.496Z,1014.17
2017-11-26T03:22:31.090Z,1014.14
2017-11-26T03:22:31.687Z,1014.15
2017-11-26T03:22:32.290Z,1014.12
2017-11-26T03:22:32.886Z,1014.10
2017-11-26T03:22:33.486Z,1014.12
2017-11-26T03:22:34.089Z,1014.11
2017-11-26T03:22:34.687Z,1014.12
2017-11-26T03:23:28.663Z,1014.13
2017-11-26T03:23:29.257Z,1014.10
2017-11-26T03:23:29.852Z,1014.13
2017-11-26T03:23:30.452Z,1014.12
2017-11-26T03:23:31.051Z,1014.14
2017-11-26T03:23:31.654Z,1014.12
2017-11-26T03:23:32.252Z,1014.13
2017-11-26T03:24:25.695Z,1014.05
2017-11-26T03:24:26.291Z,1014.07
2017-11-26T03:24:26.890Z,1014.04
2017-11-26T03:24:27.489Z,1014.06
2017-11-26T03:24:28.113Z,1014.05
2017-11-26T03:24:28.688Z,1014.04
2017-11-26T03:24:29.290Z,1014.07
2017-11-26T03:24:29.894Z,1014.07
2017-11-26T03:25:53.482Z,1014.06
2017-11-26T03:25:54.047Z,1014.07
2017-11-26T03:25:54.646Z,1014.09
2017-11-26T03:25:55.246Z,1014.05
2017-11-26T03:25:55.846Z,1014.02
2017-11-26T03:25:56.447Z,1014.03
2017-11-26T03:25:57.048Z,1014.06
2017-11-26T03:25:57.646Z,1014.09
2017-11-26T03:25:58.252Z,1014.11
2017-11-26T03:25:58.846Z,1014.07
2017-11-26T03:26:53.889Z,1014.08
2017-11-26T03:26:54.465Z,1014.05
2017-11-26T03:26:55.063Z,1014.06
2017-11-26T03:26:55.663Z,1014.06
2017-11-26T03:26:56.262Z,1014.05
2017-11-26T03:26:56.865Z,1014.07
2017-11-26T03:26:57.464Z,1014.08
2017-11-26T03:26:58.061Z,1014.05
2017-11-26T03:27:51.849Z,1014.07
2017-11-26T03:27:52.422Z,1014.07
2017-11-26T03:27:53.091Z,1014.05
2017-11-26T03:27:53.624Z,1014.05
2017-11-26T03:27:54.222Z,1014.06
2017-11-26T03:27:54.823Z,1014.04
2017-11-26T03:27:55.420Z,1014.04
2017-11-26T03:27:56.021Z,1014.04
2017-11-26T03:28:49.610Z,1014.09
2017-11-26T03:28:50.177Z,1014.08
2017-11-26T03:28:50.777Z,1014.08
2017-11-26T03:28:51.376Z,1014.10
2017-11-26T03:28:51.979Z,1014.07
2017-11-26T03:28:52.576Z,1014.10
2017-11-26T03:28:53.176Z,1014.05
2017-11-26T03:28:53.785Z,1014.10
2017-11-26T03:29:47.766Z,1014.09
2017-11-26T03:29:48.342Z,1014.09
2017-11-26T03:29:48.939Z,1014.10
2017-11-26T03:29:49.539Z,1014.07
2017-11-26T03:29:50.140Z,1014.09
2017-11-26T03:29:50.745Z,1014.08
2017-11-26T03:29:51.339Z,1014.08
2017-11-26T03:30:45.782Z,1014.09
2017-11-26T03:30:46.374Z,1014.04
2017-11-26T03:30:46.973Z,1014.05
2017-11-26T03:30:47.576Z,1014.06
2017-11-26T03:30:48.181Z,1014.09
2017-11-26T03:30:48.770Z,1014.10
2017-11-26T03:30:49.371Z,1014.04
2017-11-26T03:30:49.970Z,1014.06
2017-11-26T03:31:45.031Z,1014.06
2017-11-26T03:31:45.591Z,1014.07
2017-11-26T03:31:46.188Z,1014.05
2017-11-26T03:31:46.797Z,1014.03
2017-11-26T03:31:47.390Z,1014.06
2017-11-26T03:31:47.989Z,1014.06
2017-11-26T03:32:43.078Z,1014.05
2017-11-26T03:32:43.651Z,1014.05
2017-11-26T03:32:44.251Z,1014.05
2017-11-26T03:32:44.851Z,1014.05
2017-11-26T03:32:45.452Z,1014.08
2017-11-26T03:32:46.050Z,1014.02
2017-11-26T03:32:46.650Z,1014.05
2017-11-26T03:32:47.249Z,1013.98
2017-11-26T03:33:41.754Z,1014.02
2017-11-26T03:33:42.325Z,1014.04
2017-11-26T03:33:42.938Z,1014.05
2017-11-26T03:33:43.526Z,1014.06
2017-11-26T03:33:44.126Z,1014.06
2017-11-26T03:33:44.726Z,1014.07
2017-11-26T03:33:45.326Z,1014.03
2017-11-26T03:33:45.924Z,1014.03
2017-11-26T03:34:39.407Z,1014.06
2017-11-26T03:34:39.978Z,1014.03
2017-11-26T03:34:40.578Z,1014.00
2017-11-26T03:34:41.177Z,1013.97
2017-11-26T03:34:41.786Z,1014.02
2017-11-26T03:34:42.386Z,1014.00
2017-11-26T03:34:42.977Z,1014.04
2017-11-26T03:34:43.583Z,1014.02
2017-11-26T03:35:37.055Z,1013.93
2017-11-26T03:35:37.630Z,1013.93
2017-11-26T03:35:38.229Z,1013.92
2017-11-26T03:35:38.829Z,1013.91
2017-11-26T03:35:39.428Z,1013.90
2017-11-26T03:35:40.029Z,1013.91
2017-11-26T03:35:40.627Z,1013.92
2017-11-26T03:35:41.230Z,1013.93
2017-11-26T03:36:35.731Z,1014.00
2017-11-26T03:36:36.306Z,1013.93
2017-11-26T03:36:36.904Z,1014.01
2017-11-26T03:36:37.504Z,1013.98
2017-11-26T03:36:38.104Z,1013.93
2017-11-26T03:36:38.705Z,1013.95
2017-11-26T03:36:39.327Z,1013.93
2017-11-26T03:36:39.907Z,1013.96
2017-11-26T03:37:33.383Z,1013.99
2017-11-26T03:37:33.959Z,1013.93
2017-11-26T03:37:34.559Z,1013.98
2017-11-26T03:37:35.158Z,1013.96
2017-11-26T03:37:35.763Z,1013.97
2017-11-26T03:37:36.419Z,1013.97
2017-11-26T03:37:36.956Z,1013.98
2017-11-26T03:37:37.572Z,1014.00
2017-11-26T03:38:31.039Z,1013.96
2017-11-26T03:38:31.614Z,1013.96
2017-11-26T03:38:32.214Z,1013.96
2017-11-26T03:38:32.812Z,1014.02
2017-11-26T03:38:33.413Z,1013.98
2017-11-26T03:38:34.007Z,1013.99
2017-11-26T03:38:34.609Z,1013.96
2017-11-26T03:38:35.209Z,1014.00
2017-11-26T03:39:28.663Z,1013.99
2017-11-26T03:39:29.262Z,1013.97
2017-11-26T03:39:29.864Z,1013.99
2017-11-26T03:39:30.461Z,1013.95
2017-11-26T03:39:31.060Z,1013.96
2017-11-26T03:39:31.681Z,1013.98
2017-11-26T03:39:32.260Z,1014.01
2017-11-26T03:39:32.860Z,1013.98
2017-11-26T03:40:27.369Z,1014.00
2017-11-26T03:40:27.937Z,1014.00
2017-11-26T03:40:28.539Z,1014.00
2017-11-26T03:40:29.135Z,1014.00
2017-11-26T03:40:29.735Z,1014.03
2017-11-26T03:40:30.335Z,1014.04
2017-11-26T03:40:30.935Z,1014.02
2017-11-26T03:40:31.535Z,1014.00
2017-11-26T03:41:27.551Z,1014.01
2017-11-26T03:41:28.148Z,1014.01
2017-11-26T03:41:28.747Z,1013.99
2017-11-26T03:41:29.346Z,1014.01
2017-11-26T03:41:29.948Z,1013.99
2017-11-26T03:41:30.548Z,1014.01
2017-11-26T03:42:25.540Z,1013.99
2017-11-26T03:42:26.108Z,1014.01
2017-11-26T03:42:26.705Z,1014.01
2017-11-26T03:42:27.304Z,1014.01
2017-11-26T03:42:27.906Z,1014.00
2017-11-26T03:42:28.505Z,1014.01
2017-11-26T03:42:29.103Z,1014.02
2017-11-26T03:42:29.707Z,1014.04
2017-11-26T03:43:23.161Z,1013.99
2017-11-26T03:43:23.756Z,1014.01
2017-11-26T03:43:24.356Z,1014.02
2017-11-26T03:43:24.955Z,1013.98
2017-11-26T03:43:25.559Z,1014.00
2017-11-26T03:43:26.163Z,1014.01
2017-11-26T03:43:26.758Z,1013.99
2017-11-26T03:43:27.359Z,1014.04
2017-11-26T03:44:21.844Z,1014.00
2017-11-26T03:44:22.435Z,1014.02
2017-11-26T03:44:23.033Z,1013.99
2017-11-26T03:44:23.631Z,1014.00
2017-11-26T03:44:24.232Z,1014.00
2017-11-26T03:44:24.833Z,1014.02
2017-11-26T03:44:25.466Z,1014.03
2017-11-26T03:44:26.037Z,1014.03
2017-11-26T03:45:19.593Z,1014.01
2017-11-26T03:45:20.188Z,1014.05
2017-11-26T03:45:20.788Z,1014.02
2017-11-26T03:45:21.386Z,1014.01
2017-11-26T03:45:22.006Z,1014.02
2017-11-26T03:45:22.587Z,1014.01
2017-11-26T03:45:23.188Z,1013.99
2017-11-26T03:45:23.794Z,1014.00
2017-11-26T03:46:17.244Z,1014.05
2017-11-26T03:46:17.840Z,1014.04
2017-11-26T03:46:18.439Z,1014.10
2017-11-26T03:46:19.042Z,1014.04
2017-11-26T03:46:19.639Z,1014.01
2017-11-26T03:46:20.246Z,1014.07
2017-11-26T03:46:20.843Z,1014.07
2017-11-26T03:46:21.443Z,1014.06
2017-11-26T03:47:14.898Z,1014.06
2017-11-26T03:47:15.491Z,1014.07
2017-11-26T03:47:16.093Z,1014.07
2017-11-26T03:47:16.696Z,1014.11
2017-11-26T03:47:17.291Z,1014.08
2017-11-26T03:47:17.898Z,1014.05
2017-11-26T03:47:18.493Z,1014.10
2017-11-26T03:47:19.095Z,1014.13
2017-11-26T03:48:12.684Z,1014.06
2017-11-26T03:48:13.247Z,1014.04
2017-11-26T03:48:13.846Z,1014.07
2017-11-26T03:48:14.446Z,1014.07
2017-11-26T03:48:15.051Z,1014.05
2017-11-26T03:48:15.645Z,1014.07
2017-11-26T03:48:16.246Z,1014.05
2017-11-26T03:48:16.856Z,1014.10
2017-11-26T03:49:10.300Z,1014.08
2017-11-26T03:49:10.896Z,1014.11
2017-11-26T03:49:11.496Z,1014.11
2017-11-26T03:49:12.097Z,1014.06
2017-11-26T03:49:12.696Z,1014.07
2017-11-26T03:49:13.296Z,1014.07
2017-11-26T03:49:13.899Z,1014.04
2017-11-26T03:49:14.499Z,1014.07
2017-11-26T04:07:15.765Z,1014.15
2017-11-26T04:07:16.339Z,1014.12
2017-11-26T04:07:16.938Z,1014.15
2017-11-26T04:07:17.540Z,1014.14
2017-11-26T04:07:18.139Z,1014.14
2017-11-26T04:07:18.743Z,1014.14
2017-11-26T04:07:19.339Z,1014.12
2017-11-26T04:07:19.939Z,1014.16
2017-11-26T04:08:13.418Z,1014.14
2017-11-26T04:08:13.994Z,1014.10
2017-11-26T04:08:14.593Z,1014.10
2017-11-26T04:08:15.193Z,1014.10
2017-11-26T04:08:15.793Z,1014.13
2017-11-26T04:08:16.428Z,1014.12
2017-11-26T04:08:16.992Z,1014.14
2017-11-26T04:08:17.594Z,1014.09
2017-11-26T04:09:12.093Z,1014.19
2017-11-26T04:09:12.668Z,1014.18
2017-11-26T04:09:13.266Z,1014.19
2017-11-26T04:09:13.866Z,1014.19
2017-11-26T04:09:14.478Z,1014.17
2017-11-26T04:09:15.064Z,1014.19
2017-11-26T04:09:15.667Z,1014.15
2017-11-26T04:09:16.326Z,1014.14
2017-11-26T04:10:09.724Z,1014.09
2017-11-26T04:10:10.327Z,1014.12
2017-11-26T04:10:10.926Z,1014.05
2017-11-26T04:10:11.528Z,1014.13
2017-11-26T04:10:12.135Z,1014.07
2017-11-26T04:10:12.718Z,1014.10
2017-11-26T04:10:13.332Z,1014.11
2017-11-26T04:10:13.920Z,1014.12
2017-11-26T04:11:15.033Z,1014.11
2017-11-26T04:11:15.551Z,1014.06
2017-11-26T04:11:16.171Z,1014.07
2017-11-26T04:11:16.769Z,1014.12
2017-11-26T04:11:17.467Z,1014.14
2017-11-26T04:11:17.967Z,1014.14
2017-11-26T04:11:18.599Z,1014.10
2017-11-26T04:11:19.152Z,1014.08
2017-11-26T04:11:19.815Z,1014.10
2017-11-26T04:11:20.350Z,1014.10
2017-11-26T04:11:20.948Z,1014.07
2017-11-26T04:11:21.546Z,1014.11
2017-11-26T04:12:16.519Z,1014.06
2017-11-26T04:12:17.092Z,1014.08
2017-11-26T04:12:17.693Z,1014.11
2017-11-26T04:12:18.292Z,1014.06
2017-11-26T04:12:18.892Z,1014.06
2017-11-26T04:12:19.492Z,1014.10
2017-11-26T04:12:20.091Z,1014.11
2017-11-26T04:13:13.535Z,1014.08
2017-11-26T04:13:14.132Z,1014.10
2017-11-26T04:13:14.731Z,1014.09
2017-11-26T04:13:15.331Z,1014.10
2017-11-26T04:13:15.930Z,1014.08
2017-11-26T04:13:16.530Z,1014.08
2017-11-26T04:13:17.131Z,1014.05
2017-11-26T04:13:17.733Z,1014.05
2017-11-26T04:14:11.698Z,1014.09
2017-11-26T04:14:12.293Z,1014.10
2017-11-26T04:14:12.894Z,1014.08
2017-11-26T04:14:13.496Z,1014.08
2017-11-26T04:14:14.095Z,1014.09
2017-11-26T04:14:14.694Z,1014.11
2017-11-26T04:14:15.292Z,1014.10
2017-11-26T04:15:08.841Z,1014.08
2017-11-26T04:15:09.437Z,1014.06
2017-11-26T04:15:10.035Z,1014.05
2017-11-26T04:15:10.635Z,1014.04
2017-11-26T04:15:11.235Z,1014.06
2017-11-26T04:15:11.834Z,1014.07
2017-11-26T04:15:12.434Z,1014.07
2017-11-26T04:15:13.037Z,1014.08
2017-11-26T04:16:07.514Z,1014.06
2017-11-26T04:16:08.111Z,1014.02
2017-11-26T04:16:08.714Z,1014.02
2017-11-26T04:16:09.310Z,1014.00
2017-11-26T04:16:09.909Z,1014.03
2017-11-26T04:16:10.509Z,1014.05
2017-11-26T04:16:11.111Z,1014.05
2017-11-26T04:16:11.713Z,1014.06
2017-11-26T04:17:06.228Z,1014.00
2017-11-26T04:17:06.787Z,1014.00
2017-11-26T04:17:07.385Z,1013.98
2017-11-26T04:17:07.985Z,1013.97
2017-11-26T04:17:08.585Z,1013.97
2017-11-26T04:17:09.184Z,1013.96
2017-11-26T04:17:09.789Z,1013.97
2017-11-26T04:17:10.393Z,1014.00
2017-11-26T04:18:03.845Z,1014.01
2017-11-26T04:18:04.446Z,1014.00
2017-11-26T04:18:05.044Z,1013.99
2017-11-26T04:18:05.637Z,1013.98
2017-11-26T04:18:06.245Z,1014.00
2017-11-26T04:18:06.858Z,1013.97
2017-11-26T04:18:07.439Z,1013.97
2017-11-26T04:18:08.038Z,1014.00
2017-11-26T04:19:07.538Z,1013.99
2017-11-26T04:19:08.133Z,1013.97
2017-11-26T04:19:08.731Z,1013.99
2017-11-26T04:19:09.332Z,1013.96
2017-11-26T04:19:09.932Z,1014.00
2017-11-26T04:19:10.529Z,1014.00
2017-11-26T04:19:11.129Z,1013.97
2017-11-26T04:19:11.729Z,1014.00
2017-11-26T04:19:12.333Z,1013.98
2017-11-26T04:19:12.928Z,1013.98
2017-11-26T04:19:13.530Z,1013.96
2017-11-26T04:19:14.128Z,1013.93
2017-11-26T04:19:14.730Z,1013.94
2017-11-26T04:19:15.329Z,1013.99
2017-11-26T04:19:15.933Z,1013.98
2017-11-26T04:19:16.527Z,1014.01
2017-11-26T04:20:30.074Z,1013.99
2017-11-26T04:20:30.670Z,1014.00
2017-11-26T04:20:31.268Z,1013.94
2017-11-26T04:20:31.866Z,1014.00
2017-11-26T04:20:32.474Z,1013.96
2017-11-26T04:20:33.067Z,1013.98
2017-11-26T04:20:33.665Z,1013.96
2017-11-26T04:20:34.282Z,1013.97
2017-11-26T04:21:27.724Z,1013.97
2017-11-26T04:21:28.318Z,1013.93
2017-11-26T04:21:28.925Z,1013.93
2017-11-26T04:21:29.521Z,1013.95
2017-11-26T04:21:30.159Z,1013.93
2017-11-26T04:21:30.718Z,1013.92
2017-11-26T04:21:31.318Z,1013.91
2017-11-26T04:21:31.920Z,1013.92
2017-11-26T04:22:25.405Z,1013.93
2017-11-26T04:22:25.974Z,1013.95
2017-11-26T04:22:26.571Z,1013.93
2017-11-26T04:22:27.171Z,1013.97
2017-11-26T04:22:27.769Z,1013.98
2017-11-26T04:22:28.369Z,1013.96
2017-11-26T04:22:28.969Z,1014.00
2017-11-26T04:22:29.572Z,1014.02
2017-11-26T04:23:23.558Z,1013.98
2017-11-26T04:23:24.138Z,1013.92
2017-11-26T04:23:24.732Z,1013.99
2017-11-26T04:23:25.331Z,1013.94
2017-11-26T04:23:25.932Z,1013.95
2017-11-26T04:23:26.535Z,1013.95
2017-11-26T04:23:27.132Z,1013.97
2017-11-26T04:24:20.599Z,1013.94
2017-11-26T04:24:21.186Z,1014.01
2017-11-26T04:24:21.809Z,1013.98
2017-11-26T04:24:22.371Z,1013.93
2017-11-26T04:24:22.970Z,1013.98
2017-11-26T04:24:23.570Z,1013.96
2017-11-26T04:24:24.173Z,1013.98
2017-11-26T04:24:24.800Z,1013.96
2017-11-26T04:25:18.250Z,1013.95
2017-11-26T04:25:18.826Z,1013.97
2017-11-26T04:25:19.432Z,1013.96
2017-11-26T04:25:20.024Z,1013.92
2017-11-26T04:25:20.623Z,1013.93
2017-11-26T04:25:21.224Z,1013.96
2017-11-26T04:25:21.824Z,1013.95
2017-11-26T04:25:22.427Z,1013.97
2017-11-26T04:26:16.924Z,1013.92
2017-11-26T04:26:17.501Z,1013.92
2017-11-26T04:26:18.098Z,1013.92
2017-11-26T04:26:18.697Z,1013.90
2017-11-26T04:26:19.298Z,1013.93
2017-11-26T04:26:19.898Z,1013.92
2017-11-26T04:26:20.497Z,1013.90
2017-11-26T04:26:21.099Z,1013.87
2017-11-26T04:27:15.087Z,1013.93
2017-11-26T04:27:15.668Z,1013.93
2017-11-26T04:27:16.261Z,1013.89
2017-11-26T04:27:16.863Z,1013.95
2017-11-26T04:27:17.462Z,1013.93
2017-11-26T04:27:18.059Z,1013.94
2017-11-26T04:27:18.658Z,1013.93
2017-11-26T04:28:13.669Z,1013.88
2017-11-26T04:28:14.237Z,1013.93
2017-11-26T04:28:14.835Z,1013.92
2017-11-26T04:28:15.435Z,1013.88
2017-11-26T04:28:16.034Z,1013.89
2017-11-26T04:28:16.634Z,1013.89
2017-11-26T04:28:17.235Z,1013.92
2017-11-26T04:29:10.698Z,1013.87
2017-11-26T04:29:11.273Z,1013.87
2017-11-26T04:29:11.872Z,1013.91
2017-11-26T04:29:12.472Z,1013.89
2017-11-26T04:29:13.075Z,1013.90
2017-11-26T04:29:13.673Z,1013.88
2017-11-26T04:29:14.277Z,1013.90
2017-11-26T04:29:14.874Z,1013.89
2017-11-26T04:30:08.379Z,1013.93
2017-11-26T04:30:08.927Z,1013.89
2017-11-26T04:30:09.525Z,1013.88
2017-11-26T04:30:10.131Z,1013.91
2017-11-26T04:30:10.725Z,1013.90
2017-11-26T04:30:11.325Z,1013.89
2017-11-26T04:30:11.924Z,1013.91
2017-11-26T04:30:12.524Z,1013.90
2017-11-26T04:31:07.024Z,1013.91
2017-11-26T04:31:07.600Z,1013.95
2017-11-26T04:31:08.199Z,1013.89
2017-11-26T04:31:08.798Z,1013.87
2017-11-26T04:31:09.398Z,1013.93
2017-11-26T04:31:10.004Z,1013.88
2017-11-26T04:31:10.600Z,1013.87
2017-11-26T04:31:11.198Z,1013.90
2017-11-26T04:32:05.699Z,1013.89
2017-11-26T04:32:06.275Z,1013.88
2017-11-26T04:32:06.885Z,1013.88
2017-11-26T04:32:07.476Z,1013.92
2017-11-26T04:32:08.078Z,1013.87
2017-11-26T04:32:08.674Z,1013.90
2017-11-26T04:32:09.273Z,1013.88
2017-11-26T04:32:09.876Z,1013.88
2017-11-26T04:33:04.376Z,1013.87
2017-11-26T04:33:04.953Z,1013.89
2017-11-26T04:33:05.550Z,1013.88
2017-11-26T04:33:06.151Z,1013.90
2017-11-26T04:33:06.750Z,1013.90
2017-11-26T04:33:07.350Z,1013.89
2017-11-26T04:33:07.953Z,1013.89
2017-11-26T04:33:08.551Z,1013.89
2017-11-26T04:34:02.031Z,1013.90
2017-11-26T04:34:02.611Z,1013.90
2017-11-26T04:34:03.204Z,1013.88
2017-11-26T04:34:03.807Z,1013.87